Ugnu Kuparuk, AK

4:25 PM AKDT on August 03, 2015 (GMT -0800)
Kuparuk | | Change Station
CLOSE
Current Station
Airport
Location: Kuparuk,
Elevation: 66 ft
Nearby Weather Stations

Elev 66 ft 70.33 °N, 149.60 °W | Updated 40 minutes ago

Light Rain Showers
Light Showers Rain
55 °F
Feels Like 55 °F
N
15
Wind Variable Wind from West
Gusts 23 mph

Today
High -- | Low -- °F
--% Chance of Precip.
Yesterday
High -- | Low -- °F
Precip. -- in
3:32 AM 0:29 AM
Waning Gibbous, 83% visible
Pressure 29.88 in
Visibility 7.0 miles
Clouds Scattered Clouds 800 ft
Mostly Cloudy 1100 ft
Mostly Cloudy 2800 ft
Dew Point 54 °F
Humidity 94%
Rainfall 0.00 in
Snow Depth Not available.
UV 2 out of 12
Pollen Not available.
Air Quality Not available.
Flu Activity Not available.
METAR PAKU 032345Z 26013G20KT 7SM R24/P6000FT -SHRA SCT008 BKN011 BKN028 13/12 A2988

More Conditions Fewer Conditions

Pressure 29.88 in
Visibility 7.0 miles
Clouds Scattered Clouds 800 ft
Mostly Cloudy 1100 ft
Mostly Cloudy 2800 ft
Dew Point 54 °F
Humidity 94%
Rainfall 0.00 in
Snow Depth Not available.
UV 2 out of 12
Pollen Not available.
Air Quality Not available.
Flu Activity Not available.
METAR PAKU 032345Z 26013G20KT 7SM R24/P6000FT -SHRA SCT008 BKN011 BKN028 13/12 A2988

More Conditions Fewer Conditions

10-Day Weather Forecast

×

Almanac

Astronomy

Aug. 03, 2015 Rise Set
Actual Time
Civil Twilight
Nautical Twilight
Astronomical Twilight
Moon
Length of Visible Light
Length of Day
Tomorrow will be .
, % of the Moon is Illuminated

Today's Extremes

State Highs State Lows

Community

WunderPhotos

Upload Photos

1,843,793 photos uploaded!

WunderBlogs® & News

Nearby

Air Quality

  Air Quality AQ Index Pollutant
Not available.

Snow Depth

Station Depth Elevation

Earthquake Activity

City Distance Mag. Time & Date
Minimum magnitude displayed is 2.5.

Coastal Water Temperatures

Place Temperature

Stations

Nearby Weather Stations

Station Location Temp. Windchill Dew Point Humidity Wind Precip. Elev Updated Type